sensor_id;sensor_type;location;lat;lon;timestamp;pressure;altitude;pressure_sealevel;temperature;humidity
21730;BME280;11027;51.030;13.812;2022-11-20T00:00:55;99954.38;;;-2.79;73.27
21730;BME280;11027;51.030;13.812;2022-11-20T00:03:20;99945.44;;;-2.78;73.23
21730;BME280;11027;51.030;13.812;2022-11-20T00:05:46;99943.72;;;-2.79;72.95
21730;BME280;11027;51.030;13.812;2022-11-20T00:08:12;99944.78;;;-2.82;72.76
21730;BME280;11027;51.030;13.812;2022-11-20T00:10:38;99945.84;;;-2.84;72.39
21730;BME280;11027;51.030;13.812;2022-11-20T00:13:04;99952.22;;;-2.87;72.38
21730;BME280;11027;51.030;13.812;2022-11-20T00:15:29;99952.41;;;-2.90;72.36
21730;BME280;11027;51.030;13.812;2022-11-20T00:17:54;99946.25;;;-2.90;72.32
21730;BME280;11027;51.030;13.812;2022-11-20T00:20:20;99947.00;;;-2.88;72.24
21730;BME280;11027;51.030;13.812;2022-11-20T00:22:45;99933.84;;;-2.91;72.57
21730;BME280;11027;51.030;13.812;2022-11-20T00:25:10;99930.44;;;-2.93;72.69
21730;BME280;11027;51.030;13.812;2022-11-20T00:27:36;99939.41;;;-2.94;72.98
21730;BME280;11027;51.030;13.812;2022-11-20T00:30:02;99940.06;;;-2.91;72.80
21730;BME280;11027;51.030;13.812;2022-11-20T00:32:27;99944.31;;;-2.88;73.07
21730;BME280;11027;51.030;13.812;2022-11-20T00:34:53;99947.94;;;-2.89;72.88
21730;BME280;11027;51.030;13.812;2022-11-20T00:37:18;99950.25;;;-2.97;72.87
21730;BME280;11027;51.030;13.812;2022-11-20T00:39:43;99950.84;;;-3.07;73.00
21730;BME280;11027;51.030;13.812;2022-11-20T00:42:08;99958.28;;;-3.12;73.01
21730;BME280;11027;51.030;13.812;2022-11-20T00:44:34;99963.59;;;-3.12;73.26
21730;BME280;11027;51.030;13.812;2022-11-20T00:46:59;99961.03;;;-3.13;73.01
21730;BME280;11027;51.030;13.812;2022-11-20T00:49:24;99961.91;;;-3.13;73.14
21730;BME280;11027;51.030;13.812;2022-11-20T00:51:49;99966.19;;;-3.10;73.16
21730;BME280;11027;51.030;13.812;2022-11-20T00:54:15;99965.34;;;-3.11;73.29
21730;BME280;11027;51.030;13.812;2022-11-20T00:56:40;99965.34;;;-3.11;73.08
21730;BME280;11027;51.030;13.812;2022-11-20T00:59:05;99970.66;;;-3.11;73.12
21730;BME280;11027;51.030;13.812;2022-11-20T01:01:30;99964.47;;;-3.11;72.90
21730;BME280;11027;51.030;13.812;2022-11-20T01:03:58;99968.00;;;-3.11;72.83
21730;BME280;11027;51.030;13.812;2022-11-20T01:06:35;99961.69;;;-3.10;72.61
21730;BME280;11027;51.030;13.812;2022-11-20T01:09:09;99959.03;;;-3.10;72.55
21730;BME280;11027;51.030;13.812;2022-11-20T01:11:37;99964.19;;;-3.07;72.34
21730;BME280;11027;51.030;13.812;2022-11-20T01:14:06;99969.50;;;-3.07;72.17
21730;BME280;11027;51.030;13.812;2022-11-20T01:16:38;99960.66;;;-3.07;72.16
21730;BME280;11027;51.030;13.812;2022-11-20T01:19:05;99961.69;;;-3.10;72.39
21730;BME280;11027;51.030;13.812;2022-11-20T01:21:41;99956.19;;;-3.07;72.36
21730;BME280;11027;51.030;13.812;2022-11-20T01:24:10;99956.38;;;-3.10;72.30
21730;BME280;11027;51.030;13.812;2022-11-20T01:26:38;99955.63;;;-3.12;72.18
21730;BME280;11027;51.030;13.812;2022-11-20T01:29:04;99953.16;;;-3.15;72.33
21730;BME280;11027;51.030;13.812;2022-11-20T01:31:32;99952.28;;;-3.15;72.31
21730;BME280;11027;51.030;13.812;2022-11-20T01:33:59;99951.66;;;-3.19;72.29
21730;BME280;11027;51.030;13.812;2022-11-20T01:36:27;99949.91;;;-3.20;72.36
21730;BME280;11027;51.030;13.812;2022-11-20T01:38:54;99948.00;;;-3.18;72.38
21730;BME280;11027;51.030;13.812;2022-11-20T01:41:21;99947.94;;;-3.16;72.20
21730;BME280;11027;51.030;13.812;2022-11-20T01:44:05;99946.09;;;-3.16;72.07
21730;BME280;11027;51.030;13.812;2022-11-20T01:46:38;99942.91;;;-3.21;71.92
21730;BME280;11027;51.030;13.812;2022-11-20T01:49:15;99950.13;;;-3.23;72.07
21730;BME280;11027;51.030;13.812;2022-11-20T01:51:50;99941.56;;;-3.28;72.10
21730;BME280;11027;51.030;13.812;2022-11-20T01:54:56;99941.75;;;-3.31;72.00
21730;BME280;11027;51.030;13.812;2022-11-20T01:57:14;99941.13;;;-3.35;72.35
21730;BME280;11027;51.030;13.812;2022-11-20T01:59:44;99949.88;;;-3.33;72.04
21730;BME280;11027;51.030;13.812;2022-11-20T02:02:12;99943.66;;;-3.33;72.00
21730;BME280;11027;51.030;13.812;2022-11-20T02:04:38;99951.78;;;-3.35;72.21
21730;BME280;11027;51.030;13.812;2022-11-20T02:07:04;99950.88;;;-3.35;72.32
21730;BME280;11027;51.030;13.812;2022-11-20T02:09:30;99941.38;;;-3.39;72.37
21730;BME280;11027;51.030;13.812;2022-11-20T02:11:57;99938.09;;;-3.43;72.36
21730;BME280;11027;51.030;13.812;2022-11-20T02:14:24;99942.75;;;-3.47;72.61
21730;BME280;11027;51.030;13.812;2022-11-20T02:16:50;99939.31;;;-3.49;72.45
21730;BME280;11027;51.030;13.812;2022-11-20T02:19:31;99934.06;;;-3.50;72.35
21730;BME280;11027;51.030;13.812;2022-11-20T02:22:17;99932.25;;;-3.50;72.25
21730;BME280;11027;51.030;13.812;2022-11-20T02:24:44;99926.94;;;-3.50;72.18
21730;BME280;11027;51.030;13.812;2022-11-20T02:27:12;99926.09;;;-3.50;72.00
21730;BME280;11027;51.030;13.812;2022-11-20T02:29:42;99923.50;;;-3.52;72.18
21730;BME280;11027;51.030;13.812;2022-11-20T02:32:29;99927.31;;;-3.56;72.04
21730;BME280;11027;51.030;13.812;2022-11-20T02:34:55;99929.22;;;-3.58;72.07
21730;BME280;11027;51.030;13.812;2022-11-20T02:37:22;99923.91;;;-3.58;72.07
21730;BME280;11027;51.030;13.812;2022-11-20T02:39:49;99927.72;;;-3.62;71.99
21730;BME280;11027;51.030;13.812;2022-11-20T02:42:16;99925.53;;;-3.70;71.64
21730;BME280;11027;51.030;13.812;2022-11-20T02:44:41;99925.72;;;-3.73;71.68
21730;BME280;11027;51.030;13.812;2022-11-20T02:47:07;99928.88;;;-3.80;71.66
21730;BME280;11027;51.030;13.812;2022-11-20T02:49:33;99934.41;;;-3.84;71.78
21730;BME280;11027;51.030;13.812;2022-11-20T02:51:58;99927.16;;;-3.82;71.92
21730;BME280;11027;51.030;13.812;2022-11-20T02:54:24;99930.38;;;-3.76;71.88
21730;BME280;11027;51.030;13.812;2022-11-20T02:56:49;99923.38;;;-3.77;71.82
21730;BME280;11027;51.030;13.812;2022-11-20T02:59:15;99923.38;;;-3.77;71.99
21730;BME280;11027;51.030;13.812;2022-11-20T03:01:40;99918.03;;;-3.77;72.01
21730;BME280;11027;51.030;13.812;2022-11-20T03:04:05;99923.38;;;-3.77;72.24
21730;BME280;11027;51.030;13.812;2022-11-20T03:06:30;99923.16;;;-3.74;72.29
21730;BME280;11027;51.030;13.812;2022-11-20T03:08:56;99925.06;;;-3.76;72.21
21730;BME280;11027;51.030;13.812;2022-11-20T03:11:21;99915.47;;;-3.79;72.25
21730;BME280;11027;51.030;13.812;2022-11-20T03:13:47;99916.22;;;-3.77;72.37
21730;BME280;11027;51.030;13.812;2022-11-20T03:16:15;99912.72;;;-3.77;72.26
21730;BME280;11027;51.030;13.812;2022-11-20T03:18:41;99904.59;;;-3.76;72.10
21730;BME280;11027;51.030;13.812;2022-11-20T03:21:08;99909.94;;;-3.76;72.20
21730;BME280;11027;51.030;13.812;2022-11-20T03:23:34;99906.50;;;-3.78;72.13
21730;BME280;11027;51.030;13.812;2022-11-20T03:26:13;99902.06;;;-3.77;71.98
21730;BME280;11027;51.030;13.812;2022-11-20T03:28:39;99904.06;;;-3.81;72.23
21730;BME280;11027;51.030;13.812;2022-11-20T03:31:10;99899.66;;;-3.82;72.24
21730;BME280;11027;51.030;13.812;2022-11-20T03:33:36;99897.13;;;-3.84;72.28
21730;BME280;11027;51.030;13.812;2022-11-20T03:36:06;99902.84;;;-3.90;72.14
21730;BME280;11027;51.030;13.812;2022-11-20T03:38:33;99896.16;;;-3.97;71.94
21730;BME280;11027;51.030;13.812;2022-11-20T03:41:00;99899.97;;;-4.01;72.01
21730;BME280;11027;51.030;13.812;2022-11-20T03:43:26;99903.94;;;-4.08;72.20
21730;BME280;11027;51.030;13.812;2022-11-20T03:45:51;99912.88;;;-4.09;72.27
21730;BME280;11027;51.030;13.812;2022-11-20T03:48:16;99911.00;;;-4.07;72.57
21730;BME280;11027;51.030;13.812;2022-11-20T03:50:41;99911.00;;;-4.07;72.35
21730;BME280;11027;51.030;13.812;2022-11-20T03:53:07;99908.41;;;-4.09;72.34
21730;BME280;11027;51.030;13.812;2022-11-20T03:55:32;99908.50;;;-4.10;72.53
21730;BME280;11027;51.030;13.812;2022-11-20T03:57:57;99909.25;;;-4.08;72.49
21730;BME280;11027;51.030;13.812;2022-11-20T04:00:22;99912.88;;;-4.09;72.38
21730;BME280;11027;51.030;13.812;2022-11-20T04:02:47;99913.06;;;-4.12;72.18
21730;BME280;11027;51.030;13.812;2022-11-20T04:05:13;99909.47;;;-4.11;72.04
21730;BME280;11027;51.030;13.812;2022-11-20T04:07:38;99908.78;;;-4.15;72.26
21730;BME280;11027;51.030;13.812;2022-11-20T04:10:04;99900.72;;;-4.13;71.98
21730;BME280;11027;51.030;13.812;2022-11-20T04:12:32;99906.03;;;-4.13;71.98
21730;BME280;11027;51.030;13.812;2022-11-20T04:14:57;99901.41;;;-4.10;71.82
21730;BME280;11027;51.030;13.812;2022-11-20T04:17:22;99896.91;;;-4.09;72.00
21730;BME280;11027;51.030;13.812;2022-11-20T04:19:48;99889.78;;;-4.09;71.88
21730;BME280;11027;51.030;13.812;2022-11-20T04:22:13;99889.88;;;-4.10;72.01
21730;BME280;11027;51.030;13.812;2022-11-20T04:24:38;99883.78;;;-4.12;72.01
21730;BME280;11027;51.030;13.812;2022-11-20T04:27:03;99885.44;;;-4.10;71.82
21730;BME280;11027;51.030;13.812;2022-11-20T04:29:28;99889.88;;;-4.10;71.88
21730;BME280;11027;51.030;13.812;2022-11-20T04:31:54;99877.53;;;-4.11;71.89
21730;BME280;11027;51.030;13.812;2022-11-20T04:34:19;99878.75;;;-4.17;71.65
21730;BME280;11027;51.030;13.812;2022-11-20T04:36:44;99879.81;;;-4.19;71.57
21730;BME280;11027;51.030;13.812;2022-11-20T04:39:13;99886.06;;;-4.20;71.81
21730;BME280;11027;51.030;13.812;2022-11-20T04:41:40;99875.53;;;-4.22;71.78
21730;BME280;11027;51.030;13.812;2022-11-20T04:44:06;99873.06;;;-4.25;71.77
21730;BME280;11027;51.030;13.812;2022-11-20T04:46:37;99870.41;;;-4.25;71.72
21730;BME280;11027;51.030;13.812;2022-11-20T04:49:03;99875.03;;;-4.29;71.63
21730;BME280;11027;51.030;13.812;2022-11-20T04:51:28;99867.34;;;-4.33;71.67
21730;BME280;11027;51.030;13.812;2022-11-20T04:53:54;99870.00;;;-4.33;71.81
21730;BME280;11027;51.030;13.812;2022-11-20T04:56:19;99876.09;;;-4.31;71.75
21730;BME280;11027;51.030;13.812;2022-11-20T04:58:44;99875.25;;;-4.32;71.73
21730;BME280;11027;51.030;13.812;2022-11-20T05:01:28;99873.44;;;-4.31;71.78
21730;BME280;11027;51.030;13.812;2022-11-20T05:03:53;99875.25;;;-4.32;71.95
21730;BME280;11027;51.030;13.812;2022-11-20T05:06:20;99880.34;;;-4.29;71.92
21730;BME280;11027;51.030;13.812;2022-11-20T05:08:46;99883.09;;;-4.30;71.79
21730;BME280;11027;51.030;13.812;2022-11-20T05:11:20;99881.50;;;-4.33;72.14
21730;BME280;11027;51.030;13.812;2022-11-20T05:13:45;99878.84;;;-4.33;72.20
21730;BME280;11027;51.030;13.812;2022-11-20T05:16:16;99886.03;;;-4.35;72.34
21730;BME280;11027;51.030;13.812;2022-11-20T05:18:43;99885.88;;;-4.32;72.28
21730;BME280;11027;51.030;13.812;2022-11-20T05:21:09;99877.78;;;-4.30;72.21
21730;BME280;11027;51.030;13.812;2022-11-20T05:23:35;99870.09;;;-4.35;72.46
21730;BME280;11027;51.030;13.812;2022-11-20T05:26:01;99873.50;;;-4.33;72.28
21730;BME280;11027;51.030;13.812;2022-11-20T05:28:28;99872.66;;;-4.33;72.27
21730;BME280;11027;51.030;13.812;2022-11-20T05:30:54;99877.13;;;-4.34;72.29
21730;BME280;11027;51.030;13.812;2022-11-20T05:33:20;99875.41;;;-4.35;72.34
21730;BME280;11027;51.030;13.812;2022-11-20T05:35:45;99872.00;;;-4.37;72.39
21730;BME280;11027;51.030;13.812;2022-11-20T05:38:11;99872.00;;;-4.37;72.33
21730;BME280;11027;51.030;13.812;2022-11-20T05:40:36;99871.13;;;-4.37;72.64
21730;BME280;11027;51.030;13.812;2022-11-20T05:43:01;99867.63;;;-4.38;72.65
21730;BME280;11027;51.030;13.812;2022-11-20T05:45:27;99861.56;;;-4.40;72.69
21730;BME280;11027;51.030;13.812;2022-11-20T05:47:52;99866.00;;;-4.40;72.83
21730;BME280;11027;51.030;13.812;2022-11-20T05:50:18;99863.44;;;-4.42;72.81
21730;BME280;11027;51.030;13.812;2022-11-20T05:52:43;99863.34;;;-4.40;72.83
21730;BME280;11027;51.030;13.812;2022-11-20T05:55:09;99864.38;;;-4.43;72.68
21730;BME280;11027;51.030;13.812;2022-11-20T05:57:34;99870.47;;;-4.41;72.92
21730;BME280;11027;51.030;13.812;2022-11-20T06:00:00;99858.13;;;-4.42;72.94
21730;BME280;11027;51.030;13.812;2022-11-20T06:02:25;99857.16;;;-4.41;72.85
21730;BME280;11027;51.030;13.812;2022-11-20T06:04:50;99853.75;;;-4.43;72.71
21730;BME280;11027;51.030;13.812;2022-11-20T06:07:16;99858.31;;;-4.45;72.53
21730;BME280;11027;51.030;13.812;2022-11-20T06:09:41;99861.16;;;-4.48;72.45
21730;BME280;11027;51.030;13.812;2022-11-20T06:12:06;99861.94;;;-4.46;72.43
21730;BME280;11027;51.030;13.812;2022-11-20T06:14:32;99858.59;;;-4.50;72.59
21730;BME280;11027;51.030;13.812;2022-11-20T06:16:58;99855.09;;;-4.50;72.71
21730;BME280;11027;51.030;13.812;2022-11-20T06:19:23;99861.41;;;-4.53;72.66
21730;BME280;11027;51.030;13.812;2022-11-20T06:21:49;99858.88;;;-4.54;72.83
21730;BME280;11027;51.030;13.812;2022-11-20T06:24:14;99850.69;;;-4.51;72.69
21730;BME280;11027;51.030;13.812;2022-11-20T06:26:40;99855.09;;;-4.50;72.58
21730;BME280;11027;51.030;13.812;2022-11-20T06:29:05;99850.69;;;-4.51;72.86
21730;BME280;11027;51.030;13.812;2022-11-20T06:31:30;99854.41;;;-4.54;72.97
21730;BME280;11027;51.030;13.812;2022-11-20T06:34:00;99853.56;;;-4.54;72.94
21730;BME280;11027;51.030;13.812;2022-11-20T06:36:25;99854.50;;;-4.55;72.88
21730;BME280;11027;51.030;13.812;2022-11-20T06:38:50;99848.41;;;-4.57;72.96
21730;BME280;11027;51.030;13.812;2022-11-20T06:41:18;99850.31;;;-4.59;73.33
21730;BME280;11027;51.030;13.812;2022-11-20T06:43:44;99847.03;;;-4.65;73.45
21730;BME280;11027;51.030;13.812;2022-11-20T06:46:11;99845.91;;;-4.60;73.36
21730;BME280;11027;51.030;13.812;2022-11-20T06:48:37;99849.16;;;-4.55;73.36
21730;BME280;11027;51.030;13.812;2022-11-20T06:51:04;99840.34;;;-4.56;72.95
21730;BME280;11027;51.030;13.812;2022-11-20T06:53:29;99840.25;;;-4.54;72.97
21730;BME280;11027;51.030;13.812;2022-11-20T06:55:56;99849.00;;;-4.52;72.87
21730;BME280;11027;51.030;13.812;2022-11-20T06:58:22;99837.22;;;-4.48;73.04
21730;BME280;11027;51.030;13.812;2022-11-20T07:00:48;99827.44;;;-4.48;72.71
21730;BME280;11027;51.030;13.812;2022-11-20T07:03:13;99830.78;;;-4.44;72.88
21730;BME280;11027;51.030;13.812;2022-11-20T07:05:39;99835.13;;;-4.43;72.95
21730;BME280;11027;51.030;13.812;2022-11-20T07:08:05;99831.53;;;-4.42;72.90
21730;BME280;11027;51.030;13.812;2022-11-20T07:10:30;99830.56;;;-4.41;73.15
21730;BME280;11027;51.030;13.812;2022-11-20T07:12:56;99833.22;;;-4.41;73.13
21730;BME280;11027;51.030;13.812;2022-11-20T07:15:23;99839.41;;;-4.40;73.22
21730;BME280;11027;51.030;13.812;2022-11-20T07:17:49;99831.16;;;-4.36;73.37
21730;BME280;11027;51.030;13.812;2022-11-20T07:20:15;99827.38;;;-4.32;73.48
21730;BME280;11027;51.030;13.812;2022-11-20T07:22:40;99830.78;;;-4.30;73.41
21730;BME280;11027;51.030;13.812;2022-11-20T07:25:07;99816.34;;;-4.26;73.45
21730;BME280;11027;51.030;13.812;2022-11-20T07:27:32;99821.47;;;-4.23;73.33
21730;BME280;11027;51.030;13.812;2022-11-20T07:29:58;99819.38;;;-4.17;73.38
21730;BME280;11027;51.030;13.812;2022-11-20T07:32:23;99818.31;;;-4.15;73.50
21730;BME280;11027;51.030;13.812;2022-11-20T07:34:49;99825.06;;;-4.09;73.48
21730;BME280;11027;51.030;13.812;2022-11-20T07:37:15;99818.63;;;-4.05;73.60
21730;BME280;11027;51.030;13.812;2022-11-20T07:39:40;99820.31;;;-4.04;73.75
21730;BME280;11027;51.030;13.812;2022-11-20T07:42:06;99825.44;;;-4.01;73.87
21730;BME280;11027;51.030;13.812;2022-11-20T07:44:32;99818.97;;;-3.97;73.89
21730;BME280;11027;51.030;13.812;2022-11-20T07:46:57;99823.16;;;-3.93;74.24
21730;BME280;11027;51.030;13.812;2022-11-20T07:49:23;99815.00;;;-3.90;74.38
21730;BME280;11027;51.030;13.812;2022-11-20T07:51:50;99814.59;;;-3.84;74.48
21730;BME280;11027;51.030;13.812;2022-11-20T07:54:16;99818.78;;;-3.79;74.38
21730;BME280;11027;51.030;13.812;2022-11-20T07:56:41;99805.06;;;-3.73;74.70
21730;BME280;11027;51.030;13.812;2022-11-20T07:59:06;99812.84;;;-3.70;74.71
21730;BME280;11027;51.030;13.812;2022-11-20T08:01:31;99810.75;;;-3.65;74.89
21730;BME280;11027;51.030;13.812;2022-11-20T08:03:57;99809.53;;;-3.59;74.82
21730;BME280;11027;51.030;13.812;2022-11-20T08:06:22;99803.88;;;-3.55;74.96
21730;BME280;11027;51.030;13.812;2022-11-20T08:08:49;99804.41;;;-3.50;74.79
21730;BME280;11027;51.030;13.812;2022-11-20T08:11:14;99804.91;;;-3.43;75.03
21730;BME280;11027;51.030;13.812;2022-11-20T08:13:59;99801.94;;;-3.38;75.00
21730;BME280;11027;51.030;13.812;2022-11-20T08:16:43;99807.03;;;-3.35;75.05
21730;BME280;11027;51.030;13.812;2022-11-20T08:19:09;99811.41;;;-3.34;75.05
21730;BME280;11027;51.030;13.812;2022-11-20T08:21:34;99808.53;;;-3.31;75.18
21730;BME280;11027;51.030;13.812;2022-11-20T08:24:00;99810.06;;;-3.27;75.20
21730;BME280;11027;51.030;13.812;2022-11-20T08:26:26;99815.41;;;-3.27;75.22
21730;BME280;11027;51.030;13.812;2022-11-20T08:28:57;99802.09;;;-3.27;75.48
21730;BME280;11027;51.030;13.812;2022-11-20T08:31:24;99801.00;;;-3.25;75.68
21730;BME280;11027;51.030;13.812;2022-11-20T08:33:50;99802.63;;;-3.22;75.92
21730;BME280;11027;51.030;13.812;2022-11-20T08:36:15;99799.63;;;-3.17;75.95
21730;BME280;11027;51.030;13.812;2022-11-20T08:38:40;99800.84;;;-3.09;75.92
21730;BME280;11027;51.030;13.812;2022-11-20T08:41:06;99796.91;;;-3.03;75.98
21730;BME280;11027;51.030;13.812;2022-11-20T08:43:52;99808.88;;;-2.96;76.03
21730;BME280;11027;51.030;13.812;2022-11-20T08:46:18;99798.03;;;-2.93;76.00
21730;BME280;11027;51.030;13.812;2022-11-20T08:48:44;99802.19;;;-2.89;75.93
21730;BME280;11027;51.030;13.812;2022-11-20T08:51:10;99797.47;;;-2.85;76.09
21730;BME280;11027;51.030;13.812;2022-11-20T08:53:36;99795.47;;;-2.82;76.30
21730;BME280;11027;51.030;13.812;2022-11-20T08:56:01;99783.72;;;-2.79;76.06
21730;BME280;11027;51.030;13.812;2022-11-20T08:58:27;99780.75;;;-2.74;76.13
21730;BME280;11027;51.030;13.812;2022-11-20T09:00:52;99774.13;;;-2.69;76.13
21730;BME280;11027;51.030;13.812;2022-11-20T09:03:18;99772.97;;;-2.65;76.29
21730;BME280;11027;51.030;13.812;2022-11-20T09:05:43;99768.16;;;-2.59;76.33
21730;BME280;11027;51.030;13.812;2022-11-20T09:08:08;99764.34;;;-2.55;76.18
21730;BME280;11027;51.030;13.812;2022-11-20T09:10:34;99757.72;;;-2.50;76.20
21730;BME280;11027;51.030;13.812;2022-11-20T09:13:00;99754.72;;;-2.45;76.21
21730;BME280;11027;51.030;13.812;2022-11-20T09:15:26;99756.22;;;-2.41;76.27
21730;BME280;11027;51.030;13.812;2022-11-20T09:17:52;99755.03;;;-2.37;76.08
21730;BME280;11027;51.030;13.812;2022-11-20T09:20:17;99759.19;;;-2.33;76.35
21730;BME280;11027;51.030;13.812;2022-11-20T09:22:43;99755.34;;;-2.29;76.25
21730;BME280;11027;51.030;13.812;2022-11-20T09:25:09;99758.75;;;-2.27;76.54
21730;BME280;11027;51.030;13.812;2022-11-20T09:27:34;99749.56;;;-2.23;76.36
21730;BME280;11027;51.030;13.812;2022-11-20T09:30:00;99757.28;;;-2.18;76.59
21730;BME280;11027;51.030;13.812;2022-11-20T09:32:26;99752.53;;;-2.14;76.43
21730;BME280;11027;51.030;13.812;2022-11-20T09:34:51;99752.34;;;-2.11;76.49
21730;BME280;11027;51.030;13.812;2022-11-20T09:37:16;99747.63;;;-2.08;76.38
21730;BME280;11027;51.030;13.812;2022-11-20T09:39:42;99743.78;;;-2.04;76.40
21730;BME280;11027;51.030;13.812;2022-11-20T09:50:25;99755.69;;;-1.84;76.22
21730;BME280;11027;51.030;13.812;2022-11-20T09:53:16;99754.59;;;-1.81;76.13
21730;BME280;11027;51.030;13.812;2022-11-20T09:55:45;99747.09;;;-1.76;75.76
21730;BME280;11027;51.030;13.812;2022-11-20T09:58:41;99752.13;;;-1.71;75.74
21730;BME280;11027;51.030;13.812;2022-11-20T10:01:14;99750.94;;;-1.67;75.23
21730;BME280;11027;51.030;13.812;2022-11-20T10:04:04;99753.47;;;-1.66;75.16
21730;BME280;11027;51.030;13.812;2022-11-20T10:06:44;99738.94;;;-1.62;74.85
21730;BME280;11027;51.030;13.812;2022-11-20T10:11:51;99746.91;;;-1.49;74.57
21730;BME280;11027;51.030;13.812;2022-11-20T10:14:35;99733.09;;;-1.43;74.04
21730;BME280;11027;51.030;13.812;2022-11-20T10:22:42;99726.59;;;-1.27;73.85
21730;BME280;11027;51.030;13.812;2022-11-20T10:25:15;99716.28;;;-1.21;73.65
21730;BME280;11027;51.030;13.812;2022-11-20T10:31:02;99704.88;;;-1.11;73.56
21730;BME280;11027;51.030;13.812;2022-11-20T10:33:32;99697.09;;;-1.03;73.58
21730;BME280;11027;51.030;13.812;2022-11-20T10:36:14;99701.13;;;-0.97;73.33
21730;BME280;11027;51.030;13.812;2022-11-20T10:38:53;99700.66;;;-0.91;73.33
21730;BME280;11027;51.030;13.812;2022-11-20T10:41:26;99707.00;;;-0.81;73.48
21730;BME280;11027;51.030;13.812;2022-11-20T10:46:24;99702.06;;;-0.52;73.39
21730;BME280;11027;51.030;13.812;2022-11-20T10:48:50;99707.53;;;-0.31;73.40
21730;BME280;11027;51.030;13.812;2022-11-20T10:51:35;99705.19;;;-0.02;73.56
21730;BME280;11027;51.030;13.812;2022-11-20T10:54:24;99702.34;;;0.23;72.84
21730;BME280;11027;51.030;13.812;2022-11-20T10:56:53;99702.28;;;0.45;72.19
21730;BME280;11027;51.030;13.812;2022-11-20T10:59:43;99700.03;;;0.62;71.84
21730;BME280;11027;51.030;13.812;2022-11-20T11:02:21;99698.75;;;0.77;71.41
21730;BME280;11027;51.030;13.812;2022-11-20T11:04:51;99688.34;;;0.84;71.13
21730;BME280;11027;51.030;13.812;2022-11-20T11:07:30;99693.59;;;0.85;70.55
21730;BME280;11027;51.030;13.812;2022-11-20T11:09:59;99686.19;;;0.77;69.63
21730;BME280;11027;51.030;13.812;2022-11-20T11:12:25;99682.91;;;0.74;69.80
21730;BME280;11027;51.030;13.812;2022-11-20T11:14:54;99684.13;;;0.70;69.50
21730;BME280;11027;51.030;13.812;2022-11-20T11:20:14;99673.16;;;0.73;69.35
21730;BME280;11027;51.030;13.812;2022-11-20T11:22:52;99681.97;;;0.85;69.20
21730;BME280;11027;51.030;13.812;2022-11-20T11:25:22;99677.69;;;0.93;69.21
21730;BME280;11027;51.030;13.812;2022-11-20T11:27:49;99664.91;;;1.07;69.30
21730;BME280;11027;51.030;13.812;2022-11-20T11:30:16;99668.13;;;1.22;69.25
21730;BME280;11027;51.030;13.812;2022-11-20T11:32:42;99669.31;;;1.38;69.00
21730;BME280;11027;51.030;13.812;2022-11-20T11:35:21;99667.53;;;1.49;68.81
21730;BME280;11027;51.030;13.812;2022-11-20T11:37:48;99660.19;;;1.51;68.30
21730;BME280;11027;51.030;13.812;2022-11-20T11:40:15;99657.97;;;1.56;67.84
21730;BME280;11027;51.030;13.812;2022-11-20T11:43:04;99653.03;;;1.61;67.68
21730;BME280;11027;51.030;13.812;2022-11-20T11:45:28;99647.66;;;1.61;67.59
21730;BME280;11027;51.030;13.812;2022-11-20T11:47:56;99638.91;;;1.69;67.49
21730;BME280;11027;51.030;13.812;2022-11-20T11:50:25;99629.50;;;1.84;67.48
21730;BME280;11027;51.030;13.812;2022-11-20T11:55:36;99624.03;;;2.25;67.12
21730;BME280;11027;51.030;13.812;2022-11-20T11:58:09;99619.66;;;2.33;66.60
21730;BME280;11027;51.030;13.812;2022-11-20T12:00:40;99616.97;;;2.43;66.50
21730;BME280;11027;51.030;13.812;2022-11-20T12:03:17;99609.31;;;2.48;66.22
21730;BME280;11027;51.030;13.812;2022-11-20T12:05:49;99611.03;;;2.49;66.37
21730;BME280;11027;51.030;13.812;2022-11-20T12:08:42;99603.66;;;2.42;65.82
21730;BME280;11027;51.030;13.812;2022-11-20T12:13:53;99600.56;;;2.17;64.56
21730;BME280;11027;51.030;13.812;2022-11-20T12:16:21;99595.75;;;2.11;65.12
21730;BME280;11027;51.030;13.812;2022-11-20T12:18:51;99588.69;;;2.00;65.39
21730;BME280;11027;51.030;13.812;2022-11-20T12:21:28;99586.38;;;1.86;65.76
21730;BME280;11027;51.030;13.812;2022-11-20T12:29:29;99596.75;;;1.59;66.99
21730;BME280;11027;51.030;13.812;2022-11-20T12:32:06;99608.94;;;1.54;67.26
21730;BME280;11027;51.030;13.812;2022-11-20T12:37:33;99611.69;;;1.43;67.95
21730;BME280;11027;51.030;13.812;2022-11-20T12:43:06;99609.13;;;1.31;68.42
21730;BME280;11027;51.030;13.812;2022-11-20T12:46:16;99613.31;;;1.24;69.03
21730;BME280;11027;51.030;13.812;2022-11-20T13:02:41;99603.34;;;1.05;70.71
21730;BME280;11027;51.030;13.812;2022-11-20T13:07:35;99601.94;;;1.11;70.82
21730;BME280;11027;51.030;13.812;2022-11-20T13:10:00;99605.63;;;1.10;70.86
21730;BME280;11027;51.030;13.812;2022-11-20T13:15:26;99598.56;;;1.09;71.46
21730;BME280;11027;51.030;13.812;2022-11-20T13:18:01;99602.94;;;1.10;71.52
21730;BME280;11027;51.030;13.812;2022-11-20T13:20:29;99603.91;;;1.09;71.97
21730;BME280;11027;51.030;13.812;2022-11-20T13:22:55;99599.41;;;1.09;72.04
21730;BME280;11027;51.030;13.812;2022-11-20T13:25:33;99591.22;;;1.11;72.14
21730;BME280;11027;51.030;13.812;2022-11-20T13:28:02;99596.34;;;1.14;72.20
21730;BME280;11027;51.030;13.812;2022-11-20T13:30:30;99581.06;;;1.14;72.18
21730;BME280;11027;51.030;13.812;2022-11-20T13:33:02;99578.50;;;1.13;72.48
21730;BME280;11027;51.030;13.812;2022-11-20T13:40:27;99572.59;;;1.19;72.87
21730;BME280;11027;51.030;13.812;2022-11-20T13:45:31;99574.03;;;1.23;72.99
21730;BME280;11027;51.030;13.812;2022-11-20T13:47:58;99567.00;;;1.22;73.05
21730;BME280;11027;51.030;13.812;2022-11-20T14:01:24;99570.63;;;1.21;73.32
21730;BME280;11027;51.030;13.812;2022-11-20T14:03:52;99583.09;;;1.22;73.36
21730;BME280;11027;51.030;13.812;2022-11-20T14:06:28;99581.66;;;1.18;73.22
21730;BME280;11027;51.030;13.812;2022-11-20T14:08:54;99589.25;;;1.13;73.48
21730;BME280;11027;51.030;13.812;2022-11-20T14:11:26;99581.75;;;1.07;73.26
21730;BME280;11027;51.030;13.812;2022-11-20T14:13:52;99587.38;;;1.04;73.66
21730;BME280;11027;51.030;13.812;2022-11-20T14:16:22;99584.97;;;1.00;73.36
21730;BME280;11027;51.030;13.812;2022-11-20T14:18:48;99589.88;;;0.95;73.25